sensor_id;sensor_type;location;lat;lon;timestamp;temperature;humidity
23053;DHT22;11694;-36.632;-64.318;2022-09-09T00:12:51;7.40;99.90
23053;DHT22;11694;-36.632;-64.318;2022-09-09T00:15:42;7.30;1.00
23053;DHT22;11694;-36.632;-64.318;2022-09-09T00:21:03;7.00;1.00
23053;DHT22;11694;-36.632;-64.318;2022-09-09T00:23:41;7.00;1.00
23053;DHT22;11694;-36.632;-64.318;2022-09-09T00:26:40;6.90;1.00
23053;DHT22;11694;-36.632;-64.318;2022-09-09T00:31:46;6.60;1.00
23053;DHT22;11694;-36.632;-64.318;2022-09-09T00:34:22;6.40;1.00
23053;DHT22;11694;-36.632;-64.318;2022-09-09T00:36:52;6.30;1.00
23053;DHT22;11694;-36.632;-64.318;2022-09-09T00:39:43;6.20;1.00
23053;DHT22;11694;-36.632;-64.318;2022-09-09T00:42:43;6.10;1.00
23053;DHT22;11694;-36.632;-64.318;2022-09-09T00:47:50;6.00;1.00
23053;DHT22;11694;-36.632;-64.318;2022-09-09T00:55:47;5.90;4.10
23053;DHT22;11694;-36.632;-64.318;2022-09-09T00:58:15;5.90;7.50
23053;DHT22;11694;-36.632;-64.318;2022-09-09T01:00:51;5.80;8.80
23053;DHT22;11694;-36.632;-64.318;2022-09-09T01:03:32;5.60;14.10
23053;DHT22;11694;-36.632;-64.318;2022-09-09T01:09:04;5.50;28.00
23053;DHT22;11694;-36.632;-64.318;2022-09-09T01:17:26;5.00;39.00
23053;DHT22;11694;-36.632;-64.318;2022-09-09T01:23:14;5.00;50.90
23053;DHT22;11694;-36.632;-64.318;2022-09-09T01:28:33;5.00;50.10
23053;DHT22;11694;-36.632;-64.318;2022-09-09T01:31:06;4.80;49.90
23053;DHT22;11694;-36.632;-64.318;2022-09-09T01:33:33;4.80;50.90
23053;DHT22;11694;-36.632;-64.318;2022-09-09T01:36:31;4.70;52.60
23053;DHT22;11694;-36.632;-64.318;2022-09-09T01:38:56;4.80;54.70
23053;DHT22;11694;-36.632;-64.318;2022-09-09T01:41:23;4.70;55.20
23053;DHT22;11694;-36.632;-64.318;2022-09-09T01:43:52;4.60;57.20
23053;DHT22;11694;-36.632;-64.318;2022-09-09T01:46:22;4.50;59.10
23053;DHT22;11694;-36.632;-64.318;2022-09-09T01:48:51;4.40;61.00
23053;DHT22;11694;-36.632;-64.318;2022-09-09T01:51:20;4.40;64.40
23053;DHT22;11694;-36.632;-64.318;2022-09-09T01:53:47;4.30;68.50
23053;DHT22;11694;-36.632;-64.318;2022-09-09T01:56:43;4.20;70.70
23053;DHT22;11694;-36.632;-64.318;2022-09-09T02:04:48;4.30;73.10
23053;DHT22;11694;-36.632;-64.318;2022-09-09T02:07:48;4.30;75.70
23053;DHT22;11694;-36.632;-64.318;2022-09-09T02:10:35;4.20;73.80
23053;DHT22;11694;-36.632;-64.318;2022-09-09T02:13:22;4.10;72.00
23053;DHT22;11694;-36.632;-64.318;2022-09-09T02:18:30;3.80;81.60
23053;DHT22;11694;-36.632;-64.318;2022-09-09T02:21:02;3.60;81.80
23053;DHT22;11694;-36.632;-64.318;2022-09-09T02:23:32;3.50;84.20
23053;DHT22;11694;-36.632;-64.318;2022-09-09T02:26:02;3.50;86.50
23053;DHT22;11694;-36.632;-64.318;2022-09-09T02:28:32;3.50;83.60
23053;DHT22;11694;-36.632;-64.318;2022-09-09T02:31:01;3.60;80.10
23053;DHT22;11694;-36.632;-64.318;2022-09-09T02:33:33;3.60;78.10
23053;DHT22;11694;-36.632;-64.318;2022-09-09T02:36:03;3.50;77.90
23053;DHT22;11694;-36.632;-64.318;2022-09-09T02:38:37;3.40;78.40
23053;DHT22;11694;-36.632;-64.318;2022-09-09T02:41:06;3.40;75.90
23053;DHT22;11694;-36.632;-64.318;2022-09-09T02:43:34;3.40;69.90
23053;DHT22;11694;-36.632;-64.318;2022-09-09T02:46:16;3.40;67.60
23053;DHT22;11694;-36.632;-64.318;2022-09-09T02:48:56;3.40;65.10
23053;DHT22;11694;-36.632;-64.318;2022-09-09T02:56:53;3.10;71.70
23053;DHT22;11694;-36.632;-64.318;2022-09-09T02:59:22;3.00;74.50
23053;DHT22;11694;-36.632;-64.318;2022-09-09T03:01:51;3.00;73.70
23053;DHT22;11694;-36.632;-64.318;2022-09-09T03:04:19;3.00;72.40
23053;DHT22;11694;-36.632;-64.318;2022-09-09T03:06:46;3.00;64.40
23053;DHT22;11694;-36.632;-64.318;2022-09-09T03:09:13;3.00;62.00
23053;DHT22;11694;-36.632;-64.318;2022-09-09T03:11:40;3.00;65.40
23053;DHT22;11694;-36.632;-64.318;2022-09-09T03:14:08;2.90;71.60
23053;DHT22;11694;-36.632;-64.318;2022-09-09T03:16:37;2.80;76.70
23053;DHT22;11694;-36.632;-64.318;2022-09-09T03:19:05;2.80;82.50
23053;DHT22;11694;-36.632;-64.318;2022-09-09T03:21:33;2.90;85.80
23053;DHT22;11694;-36.632;-64.318;2022-09-09T03:24:00;2.90;83.50
23053;DHT22;11694;-36.632;-64.318;2022-09-09T03:26:30;2.80;78.80
23053;DHT22;11694;-36.632;-64.318;2022-09-09T03:28:59;2.80;78.70
23053;DHT22;11694;-36.632;-64.318;2022-09-09T03:31:27;2.70;78.90
23053;DHT22;11694;-36.632;-64.318;2022-09-09T03:33:57;2.70;80.60
23053;DHT22;11694;-36.632;-64.318;2022-09-09T03:36:28;2.70;78.90
23053;DHT22;11694;-36.632;-64.318;2022-09-09T03:38:55;2.70;76.80
23053;DHT22;11694;-36.632;-64.318;2022-09-09T03:41:23;2.70;74.60
23053;DHT22;11694;-36.632;-64.318;2022-09-09T03:43:51;2.70;73.30
23053;DHT22;11694;-36.632;-64.318;2022-09-09T03:46:19;2.70;71.60
23053;DHT22;11694;-36.632;-64.318;2022-09-09T03:48:47;2.60;71.60
23053;DHT22;11694;-36.632;-64.318;2022-09-09T03:51:15;2.60;72.50
23053;DHT22;11694;-36.632;-64.318;2022-09-09T03:53:43;2.50;71.90
23053;DHT22;11694;-36.632;-64.318;2022-09-09T03:56:10;2.40;72.80
23053;DHT22;11694;-36.632;-64.318;2022-09-09T03:58:38;2.40;76.30
23053;DHT22;11694;-36.632;-64.318;2022-09-09T04:01:10;2.20;80.40
23053;DHT22;11694;-36.632;-64.318;2022-09-09T04:03:40;2.00;82.90
23053;DHT22;11694;-36.632;-64.318;2022-09-09T04:06:08;1.90;88.40
23053;DHT22;11694;-36.632;-64.318;2022-09-09T04:08:35;1.70;91.80
23053;DHT22;11694;-36.632;-64.318;2022-09-09T04:11:05;1.70;94.70
23053;DHT22;11694;-36.632;-64.318;2022-09-09T04:13:34;1.70;96.60
23053;DHT22;11694;-36.632;-64.318;2022-09-09T04:16:02;1.60;98.90
23053;DHT22;11694;-36.632;-64.318;2022-09-09T04:18:30;1.50;99.90
23053;DHT22;11694;-36.632;-64.318;2022-09-09T04:20:57;1.50;99.90
23053;DHT22;11694;-36.632;-64.318;2022-09-09T04:23:26;1.50;99.90
23053;DHT22;11694;-36.632;-64.318;2022-09-09T04:25:55;1.40;99.90
23053;DHT22;11694;-36.632;-64.318;2022-09-09T04:28:25;1.30;99.90
23053;DHT22;11694;-36.632;-64.318;2022-09-09T04:30:53;1.40;99.90
23053;DHT22;11694;-36.632;-64.318;2022-09-09T04:33:20;1.60;99.90
23053;DHT22;11694;-36.632;-64.318;2022-09-09T04:35:49;1.70;99.90
23053;DHT22;11694;-36.632;-64.318;2022-09-09T04:38:17;1.70;99.90
23053;DHT22;11694;-36.632;-64.318;2022-09-09T04:40:47;1.60;99.90
23053;DHT22;11694;-36.632;-64.318;2022-09-09T04:43:14;1.60;99.90
23053;DHT22;11694;-36.632;-64.318;2022-09-09T04:45:42;1.70;99.90
23053;DHT22;11694;-36.632;-64.318;2022-09-09T04:48:10;1.70;99.90
23053;DHT22;11694;-36.632;-64.318;2022-09-09T04:50:37;1.60;99.90
23053;DHT22;11694;-36.632;-64.318;2022-09-09T04:53:04;1.70;99.90
23053;DHT22;11694;-36.632;-64.318;2022-09-09T04:55:32;1.90;99.90
23053;DHT22;11694;-36.632;-64.318;2022-09-09T04:58:05;1.90;99.90
23053;DHT22;11694;-36.632;-64.318;2022-09-09T05:00:34;1.90;99.90
23053;DHT22;11694;-36.632;-64.318;2022-09-09T05:03:05;1.90;99.90
23053;DHT22;11694;-36.632;-64.318;2022-09-09T05:05:38;1.80;99.90
23053;DHT22;11694;-36.632;-64.318;2022-09-09T05:08:07;1.70;99.90
23053;DHT22;11694;-36.632;-64.318;2022-09-09T05:10:37;1.60;99.90
23053;DHT22;11694;-36.632;-64.318;2022-09-09T05:13:05;1.40;99.90
23053;DHT22;11694;-36.632;-64.318;2022-09-09T05:15:32;1.30;99.90
23053;DHT22;11694;-36.632;-64.318;2022-09-09T05:18:01;1.30;99.90
23053;DHT22;11694;-36.632;-64.318;2022-09-09T05:20:29;1.10;99.90
23053;DHT22;11694;-36.632;-64.318;2022-09-09T05:22:57;1.10;99.90
23053;DHT22;11694;-36.632;-64.318;2022-09-09T05:25:24;1.00;99.90
23053;DHT22;11694;-36.632;-64.318;2022-09-09T05:27:54;0.90;99.90
23053;DHT22;11694;-36.632;-64.318;2022-09-09T05:30:21;0.90;99.90
23053;DHT22;11694;-36.632;-64.318;2022-09-09T05:32:49;0.90;99.90
23053;DHT22;11694;-36.632;-64.318;2022-09-09T05:35:20;0.80;99.90
23053;DHT22;11694;-36.632;-64.318;2022-09-09T05:37:49;0.80;99.90
23053;DHT22;11694;-36.632;-64.318;2022-09-09T05:40:17;0.80;99.90
23053;DHT22;11694;-36.632;-64.318;2022-09-09T05:42:44;0.90;99.90
23053;DHT22;11694;-36.632;-64.318;2022-09-09T05:45:11;0.90;99.90
23053;DHT22;11694;-36.632;-64.318;2022-09-09T05:47:38;1.00;99.90
23053;DHT22;11694;-36.632;-64.318;2022-09-09T05:50:06;1.00;99.90
23053;DHT22;11694;-36.632;-64.318;2022-09-09T05:52:34;1.10;99.90
23053;DHT22;11694;-36.632;-64.318;2022-09-09T05:55:01;1.20;99.90
23053;DHT22;11694;-36.632;-64.318;2022-09-09T05:57:30;1.20;99.90
23053;DHT22;11694;-36.632;-64.318;2022-09-09T05:59:59;1.30;99.90
23053;DHT22;11694;-36.632;-64.318;2022-09-09T06:02:26;1.40;99.90
23053;DHT22;11694;-36.632;-64.318;2022-09-09T06:04:56;1.50;99.90
23053;DHT22;11694;-36.632;-64.318;2022-09-09T06:07:24;1.60;99.90
23053;DHT22;11694;-36.632;-64.318;2022-09-09T06:09:51;1.70;99.90
23053;DHT22;11694;-36.632;-64.318;2022-09-09T06:12:19;1.70;99.90
23053;DHT22;11694;-36.632;-64.318;2022-09-09T06:14:47;1.80;98.60
23053;DHT22;11694;-36.632;-64.318;2022-09-09T06:17:14;1.90;96.10
23053;DHT22;11694;-36.632;-64.318;2022-09-09T06:19:41;1.90;97.60
23053;DHT22;11694;-36.632;-64.318;2022-09-09T06:22:08;1.90;99.90
23053;DHT22;11694;-36.632;-64.318;2022-09-09T06:24:38;1.90;99.90
23053;DHT22;11694;-36.632;-64.318;2022-09-09T06:27:05;1.90;99.90
23053;DHT22;11694;-36.632;-64.318;2022-09-09T06:29:32;1.80;99.90
23053;DHT22;11694;-36.632;-64.318;2022-09-09T06:32:08;1.60;99.90
23053;DHT22;11694;-36.632;-64.318;2022-09-09T06:34:38;1.50;99.90
23053;DHT22;11694;-36.632;-64.318;2022-09-09T06:37:06;1.40;99.90
23053;DHT22;11694;-36.632;-64.318;2022-09-09T06:39:34;1.40;99.90
23053;DHT22;11694;-36.632;-64.318;2022-09-09T06:42:01;1.40;99.90
23053;DHT22;11694;-36.632;-64.318;2022-09-09T06:44:29;1.50;99.90
23053;DHT22;11694;-36.632;-64.318;2022-09-09T06:46:58;1.50;99.90
23053;DHT22;11694;-36.632;-64.318;2022-09-09T06:49:25;1.50;99.90
23053;DHT22;11694;-36.632;-64.318;2022-09-09T06:51:52;1.60;99.90
23053;DHT22;11694;-36.632;-64.318;2022-09-09T06:54:20;1.50;99.90
23053;DHT22;11694;-36.632;-64.318;2022-09-09T06:56:48;1.50;99.90
23053;DHT22;11694;-36.632;-64.318;2022-09-09T06:59:16;1.50;99.90
23053;DHT22;11694;-36.632;-64.318;2022-09-09T07:01:45;1.60;99.90
23053;DHT22;11694;-36.632;-64.318;2022-09-09T07:04:13;1.70;99.90
23053;DHT22;11694;-36.632;-64.318;2022-09-09T07:06:45;1.70;99.90
23053;DHT22;11694;-36.632;-64.318;2022-09-09T07:09:14;1.60;99.90
23053;DHT22;11694;-36.632;-64.318;2022-09-09T07:11:50;1.50;99.90
23053;DHT22;11694;-36.632;-64.318;2022-09-09T07:14:21;1.40;99.90
23053;DHT22;11694;-36.632;-64.318;2022-09-09T07:16:48;1.30;99.90
23053;DHT22;11694;-36.632;-64.318;2022-09-09T07:19:15;1.30;99.90
23053;DHT22;11694;-36.632;-64.318;2022-09-09T07:21:43;1.30;99.90
23053;DHT22;11694;-36.632;-64.318;2022-09-09T07:24:10;1.40;99.90
23053;DHT22;11694;-36.632;-64.318;2022-09-09T07:26:38;1.30;99.90
23053;DHT22;11694;-36.632;-64.318;2022-09-09T07:29:07;1.20;99.90
23053;DHT22;11694;-36.632;-64.318;2022-09-09T07:31:36;1.10;99.90
23053;DHT22;11694;-36.632;-64.318;2022-09-09T07:34:04;0.90;99.90
23053;DHT22;11694;-36.632;-64.318;2022-09-09T07:36:33;0.70;99.90
23053;DHT22;11694;-36.632;-64.318;2022-09-09T07:39:03;0.60;99.90
23053;DHT22;11694;-36.632;-64.318;2022-09-09T07:41:51;0.60;99.90
23053;DHT22;11694;-36.632;-64.318;2022-09-09T07:44:21;0.50;99.90
23053;DHT22;11694;-36.632;-64.318;2022-09-09T07:46:48;0.50;99.90
23053;DHT22;11694;-36.632;-64.318;2022-09-09T07:49:15;0.40;99.90
23053;DHT22;11694;-36.632;-64.318;2022-09-09T07:51:45;0.40;99.90
23053;DHT22;11694;-36.632;-64.318;2022-09-09T07:54:16;0.30;99.90
23053;DHT22;11694;-36.632;-64.318;2022-09-09T07:56:46;0.30;99.90
23053;DHT22;11694;-36.632;-64.318;2022-09-09T07:59:14;0.20;99.90
23053;DHT22;11694;-36.632;-64.318;2022-09-09T08:01:43;0.10;99.90
23053;DHT22;11694;-36.632;-64.318;2022-09-09T08:04:16;0.10;99.90
23053;DHT22;11694;-36.632;-64.318;2022-09-09T08:06:49;0.10;99.90
23053;DHT22;11694;-36.632;-64.318;2022-09-09T08:09:17;0.10;99.90
23053;DHT22;11694;-36.632;-64.318;2022-09-09T08:11:44;-0.10;99.90
23053;DHT22;11694;-36.632;-64.318;2022-09-09T08:14:12;-0.10;99.90
23053;DHT22;11694;-36.632;-64.318;2022-09-09T08:16:47;-0.20;99.90
23053;DHT22;11694;-36.632;-64.318;2022-09-09T08:19:14;-0.20;99.90
23053;DHT22;11694;-36.632;-64.318;2022-09-09T08:21:46;-0.20;99.90
23053;DHT22;11694;-36.632;-64.318;2022-09-09T08:24:15;-0.10;99.90
23053;DHT22;11694;-36.632;-64.318;2022-09-09T08:26:44;0.10;99.90
23053;DHT22;11694;-36.632;-64.318;2022-09-09T08:29:13;0.20;99.90
23053;DHT22;11694;-36.632;-64.318;2022-09-09T08:31:52;0.20;99.90
23053;DHT22;11694;-36.632;-64.318;2022-09-09T08:34:21;0.20;99.90
23053;DHT22;11694;-36.632;-64.318;2022-09-09T08:36:50;0.30;99.90
23053;DHT22;11694;-36.632;-64.318;2022-09-09T08:39:19;0.40;99.90
23053;DHT22;11694;-36.632;-64.318;2022-09-09T08:44:57;0.30;99.90
23053;DHT22;11694;-36.632;-64.318;2022-09-09T08:50:26;0.50;99.90
23053;DHT22;11694;-36.632;-64.318;2022-09-09T08:53:11;0.70;99.90
23053;DHT22;11694;-36.632;-64.318;2022-09-09T08:55:44;0.80;99.90
23053;DHT22;11694;-36.632;-64.318;2022-09-09T09:06:36;0.90;99.90
23053;DHT22;11694;-36.632;-64.318;2022-09-09T09:12:16;0.80;99.90
23053;DHT22;11694;-36.632;-64.318;2022-09-09T09:14:48;0.80;99.90
23053;DHT22;11694;-36.632;-64.318;2022-09-09T09:17:23;0.70;99.90
23053;DHT22;11694;-36.632;-64.318;2022-09-09T09:19:52;0.40;99.90
23053;DHT22;11694;-36.632;-64.318;2022-09-09T09:22:44;0.30;99.90
23053;DHT22;11694;-36.632;-64.318;2022-09-09T09:25:21;0.30;99.90
23053;DHT22;11694;-36.632;-64.318;2022-09-09T09:28:15;0.30;99.90
23053;DHT22;11694;-36.632;-64.318;2022-09-09T09:30:59;0.30;99.90
23053;DHT22;11694;-36.632;-64.318;2022-09-09T09:33:52;0.30;99.90
23053;DHT22;11694;-36.632;-64.318;2022-09-09T09:36:43;0.30;99.90
23053;DHT22;11694;-36.632;-64.318;2022-09-09T09:39:26;0.40;99.90
23053;DHT22;11694;-36.632;-64.318;2022-09-09T09:41:54;0.60;99.90
23053;DHT22;11694;-36.632;-64.318;2022-09-09T09:44:29;0.70;99.90
23053;DHT22;11694;-36.632;-64.318;2022-09-09T09:47:12;0.80;99.90
23053;DHT22;11694;-36.632;-64.318;2022-09-09T09:49:50;0.60;99.90
23053;DHT22;11694;-36.632;-64.318;2022-09-09T09:52:25;0.50;99.90
23053;DHT22;11694;-36.632;-64.318;2022-09-09T09:54:55;0.30;99.90
23053;DHT22;11694;-36.632;-64.318;2022-09-09T09:57:30;0.10;99.90
23053;DHT22;11694;-36.632;-64.318;2022-09-09T10:00:17;0.00;99.90
23053;DHT22;11694;-36.632;-64.318;2022-09-09T10:02:46;0.00;99.90
23053;DHT22;11694;-36.632;-64.318;2022-09-09T10:05:22;0.00;99.90
23053;DHT22;11694;-36.632;-64.318;2022-09-09T10:08:14;0.20;99.90
23053;DHT22;11694;-36.632;-64.318;2022-09-09T10:13:55;0.40;99.90
23053;DHT22;11694;-36.632;-64.318;2022-09-09T10:22:28;0.10;99.90
23053;DHT22;11694;-36.632;-64.318;2022-09-09T10:28:05;-0.40;99.90
23053;DHT22;11694;-36.632;-64.318;2022-09-09T10:36:34;-0.90;99.90
23053;DHT22;11694;-36.632;-64.318;2022-09-09T10:39:35;-1.00;99.90
23053;DHT22;11694;-36.632;-64.318;2022-09-09T10:42:06;-1.00;99.90
23053;DHT22;11694;-36.632;-64.318;2022-09-09T10:55:42;0.60;99.90
23053;DHT22;11694;-36.632;-64.318;2022-09-09T11:01:15;1.10;99.90
23053;DHT22;11694;-36.632;-64.318;2022-09-09T11:03:47;1.40;99.90
23053;DHT22;11694;-36.632;-64.318;2022-09-09T11:06:21;1.70;90.00
23053;DHT22;11694;-36.632;-64.318;2022-09-09T11:08:50;2.20;69.60
23053;DHT22;11694;-36.632;-64.318;2022-09-09T11:11:36;2.60;52.00
23053;DHT22;11694;-36.632;-64.318;2022-09-09T11:17:10;3.50;32.50
23053;DHT22;11694;-36.632;-64.318;2022-09-09T11:19:39;4.00;16.70
23053;DHT22;11694;-36.632;-64.318;2022-09-09T11:24:45;5.20;1.00
23053;DHT22;11694;-36.632;-64.318;2022-09-09T11:38:29;6.50;1.00
23053;DHT22;11694;-36.632;-64.318;2022-09-09T11:41:04;6.50;1.00
23053;DHT22;11694;-36.632;-64.318;2022-09-09T11:43:40;6.50;1.00
23053;DHT22;11694;-36.632;-64.318;2022-09-09T11:46:08;7.20;1.00
23053;DHT22;11694;-36.632;-64.318;2022-09-09T11:48:44;7.70;1.00
23053;DHT22;11694;-36.632;-64.318;2022-09-09T11:51:34;8.30;1.00
23053;DHT22;11694;-36.632;-64.318;2022-09-09T11:56:49;8.60;99.90
23053;DHT22;11694;-36.632;-64.318;2022-09-09T11:59:31;9.10;99.90
23053;DHT22;11694;-36.632;-64.318;2022-09-09T12:04:50;10.30;99.90
23053;DHT22;11694;-36.632;-64.318;2022-09-09T12:07:36;10.30;99.90
23053;DHT22;11694;-36.632;-64.318;2022-09-09T12:10:24;10.60;99.90
23053;DHT22;11694;-36.632;-64.318;2022-09-09T12:12:53;11.40;99.90
23053;DHT22;11694;-36.632;-64.318;2022-09-09T12:15:24;11.80;99.90
23053;DHT22;11694;-36.632;-64.318;2022-09-09T12:17:55;11.10;99.90
23053;DHT22;11694;-36.632;-64.318;2022-09-09T12:20:33;10.90;99.90
23053;DHT22;11694;-36.632;-64.318;2022-09-09T12:25:50;10.50;99.90
23053;DHT22;11694;-36.632;-64.318;2022-09-09T12:33:52;10.90;99.90
23053;DHT22;11694;-36.632;-64.318;2022-09-09T12:36:27;11.10;99.90
23053;DHT22;11694;-36.632;-64.318;2022-09-09T12:38:56;11.40;99.90
23053;DHT22;11694;-36.632;-64.318;2022-09-09T12:41:52;11.80;99.90
23053;DHT22;11694;-36.632;-64.318;2022-09-09T12:44:25;12.30;99.90
23053;DHT22;11694;-36.632;-64.318;2022-09-09T12:46:55;12.10;99.90
23053;DHT22;11694;-36.632;-64.318;2022-09-09T12:49:38;12.30;99.90
23053;DHT22;11694;-36.632;-64.318;2022-09-09T12:52:31;12.30;99.90
23053;DHT22;11694;-36.632;-64.318;2022-09-09T12:55:01;12.60;99.90
23053;DHT22;11694;-36.632;-64.318;2022-09-09T12:57:36;12.60;99.90
23053;DHT22;11694;-36.632;-64.318;2022-09-09T13:00:15;12.50;99.90
23053;DHT22;11694;-36.632;-64.318;2022-09-09T13:05:28;13.30;99.90
23053;DHT22;11694;-36.632;-64.318;2022-09-09T13:08:02;13.70;99.90
23053;DHT22;11694;-36.632;-64.318;2022-09-09T13:10:33;14.00;99.90
23053;DHT22;11694;-36.632;-64.318;2022-09-09T13:13:02;14.10;99.90
23053;DHT22;11694;-36.632;-64.318;2022-09-09T13:15:30;14.70;99.90
23053;DHT22;11694;-36.632;-64.318;2022-09-09T13:18:03;15.10;99.90
23053;DHT22;11694;-36.632;-64.318;2022-09-09T13:20:32;15.20;99.90
23053;DHT22;11694;-36.632;-64.318;2022-09-09T13:22:59;15.10;99.90
23053;DHT22;11694;-36.632;-64.318;2022-09-09T13:25:28;15.20;99.90
23053;DHT22;11694;-36.632;-64.318;2022-09-09T13:27:59;15.20;99.90
23053;DHT22;11694;-36.632;-64.318;2022-09-09T13:30:32;15.50;99.90
23053;DHT22;11694;-36.632;-64.318;2022-09-09T13:41:33;16.40;99.90
23053;DHT22;11694;-36.632;-64.318;2022-09-09T13:44:02;16.30;99.90
23053;DHT22;11694;-36.632;-64.318;2022-09-09T13:46:42;16.00;99.90
23053;DHT22;11694;-36.632;-64.318;2022-09-09T13:51:45;16.60;99.90
23053;DHT22;11694;-36.632;-64.318;2022-09-09T13:54:14;16.40;99.90
23053;DHT22;11694;-36.632;-64.318;2022-09-09T13:56:43;16.30;99.90
23053;DHT22;11694;-36.632;-64.318;2022-09-09T13:59:13;16.60;99.90
23053;DHT22;11694;-36.632;-64.318;2022-09-09T14:01:41;17.00;99.90
23053;DHT22;11694;-36.632;-64.318;2022-09-09T14:04:09;17.00;99.90
23053;DHT22;11694;-36.632;-64.318;2022-09-09T14:06:37;16.60;99.90
23053;DHT22;11694;-36.632;-64.318;2022-09-09T14:09:12;16.00;99.90
23053;DHT22;11694;-36.632;-64.318;2022-09-09T14:11:39;16.00;99.90
23053;DHT22;11694;-36.632;-64.318;2022-09-09T14:14:06;16.60;99.90
23053;DHT22;11694;-36.632;-64.318;2022-09-09T14:16:34;17.20;99.90
23053;DHT22;11694;-36.632;-64.318;2022-09-09T14:19:01;17.60;99.90
23053;DHT22;11694;-36.632;-64.318;2022-09-09T14:21:28;17.90;99.90
23053;DHT22;11694;-36.632;-64.318;2022-09-09T14:23:56;17.40;99.90
23053;DHT22;11694;-36.632;-64.318;2022-09-09T14:26:24;17.40;99.90
23053;DHT22;11694;-36.632;-64.318;2022-09-09T14:28:54;17.30;99.90
23053;DHT22;11694;-36.632;-64.318;2022-09-09T14:31:22;17.10;99.90
23053;DHT22;11694;-36.632;-64.318;2022-09-09T14:33:50;16.80;99.90
23053;DHT22;11694;-36.632;-64.318;2022-09-09T14:36:18;16.90;99.90
23053;DHT22;11694;-36.632;-64.318;2022-09-09T14:38:45;16.50;99.90
23053;DHT22;11694;-36.632;-64.318;2022-09-09T14:41:14;17.00;99.90
23053;DHT22;11694;-36.632;-64.318;2022-09-09T14:43:46;17.40;99.90
23053;DHT22;11694;-36.632;-64.318;2022-09-09T14:46:18;17.70;99.90
23053;DHT22;11694;-36.632;-64.318;2022-09-09T14:48:46;17.50;99.90
23053;DHT22;11694;-36.632;-64.318;2022-09-09T14:51:25;17.40;99.90
23053;DHT22;11694;-36.632;-64.318;2022-09-09T14:54:00;17.20;99.90
23053;DHT22;11694;-36.632;-64.318;2022-09-09T14:56:33;17.40;99.90
23053;DHT22;11694;-36.632;-64.318;2022-09-09T14:59:03;17.60;99.90
23053;DHT22;11694;-36.632;-64.318;2022-09-09T15:01:32;17.60;99.90
23053;DHT22;11694;-36.632;-64.318;2022-09-09T15:04:04;18.00;99.90
23053;DHT22;11694;-36.632;-64.318;2022-09-09T15:06:34;17.80;99.90
23053;DHT22;11694;-36.632;-64.318;2022-09-09T15:09:02;17.80;99.90
23053;DHT22;11694;-36.632;-64.318;2022-09-09T15:11:33;17.70;99.90
23053;DHT22;11694;-36.632;-64.318;2022-09-09T15:14:08;17.60;99.90
23053;DHT22;11694;-36.632;-64.318;2022-09-09T15:16:36;17.80;98.40
23053;DHT22;11694;-36.632;-64.318;2022-09-09T15:19:04;17.80;94.60
23053;DHT22;11694;-36.632;-64.318;2022-09-09T15:21:34;18.00;99.00
23053;DHT22;11694;-36.632;-64.318;2022-09-09T15:24:01;18.20;93.60
23053;DHT22;11694;-36.632;-64.318;2022-09-09T15:26:28;18.10;87.00
23053;DHT22;11694;-36.632;-64.318;2022-09-09T15:28:56;18.00;91.30
23053;DHT22;11694;-36.632;-64.318;2022-09-09T15:31:30;18.10;84.80
23053;DHT22;11694;-36.632;-64.318;2022-09-09T15:34:06;18.10;90.00
23053;DHT22;11694;-36.632;-64.318;2022-09-09T15:36:34;18.30;92.60
23053;DHT22;11694;-36.632;-64.318;2022-09-09T15:39:03;18.30;86.40
23053;DHT22;11694;-36.632;-64.318;2022-09-09T15:41:30;18.20;86.90
23053;DHT22;11694;-36.632;-64.318;2022-09-09T15:44:01;18.50;83.90
23053;DHT22;11694;-36.632;-64.318;2022-09-09T15:46:33;18.20;78.70
23053;DHT22;11694;-36.632;-64.318;2022-09-09T15:49:18;18.00;81.00
23053;DHT22;11694;-36.632;-64.318;2022-09-09T15:51:47;18.10;81.70
23053;DHT22;11694;-36.632;-64.318;2022-09-09T15:54:18;18.20;81.30
23053;DHT22;11694;-36.632;-64.318;2022-09-09T15:56:49;18.40;75.40
23053;DHT22;11694;-36.632;-64.318;2022-09-09T15:59:17;18.50;69.60
23053;DHT22;11694;-36.632;-64.318;2022-09-09T16:01:44;18.50;64.30
23053;DHT22;11694;-36.632;-64.318;2022-09-09T16:04:11;18.60;67.40
23053;DHT22;11694;-36.632;-64.318;2022-09-09T16:06:39;18.80;63.70
23053;DHT22;11694;-36.632;-64.318;2022-09-09T16:09:07;18.80;60.50
23053;DHT22;11694;-36.632;-64.318;2022-09-09T16:11:36;18.50;58.60
23053;DHT22;11694;-36.632;-64.318;2022-09-09T16:14:04;18.30;57.70
23053;DHT22;11694;-36.632;-64.318;2022-09-09T16:16:33;18.40;57.50
23053;DHT22;11694;-36.632;-64.318;2022-09-09T16:19:04;18.40;56.70
23053;DHT22;11694;-36.632;-64.318;2022-09-09T16:21:35;18.20;56.00
23053;DHT22;11694;-36.632;-64.318;2022-09-09T16:24:04;18.50;54.10
23053;DHT22;11694;-36.632;-64.318;2022-09-09T16:26:33;18.40;54.40
23053;DHT22;11694;-36.632;-64.318;2022-09-09T16:29:01;18.50;54.90
23053;DHT22;11694;-36.632;-64.318;2022-09-09T16:31:29;18.50;53.70
23053;DHT22;11694;-36.632;-64.318;2022-09-09T16:33:58;18.20;51.60
23053;DHT22;11694;-36.632;-64.318;2022-09-09T16:36:30;18.50;53.40
23053;DHT22;11694;-36.632;-64.318;2022-09-09T16:38:59;18.90;52.20
23053;DHT22;11694;-36.632;-64.318;2022-09-09T16:41:28;18.80;49.30
23053;DHT22;11694;-36.632;-64.318;2022-09-09T16:44:01;18.70;49.90
23053;DHT22;11694;-36.632;-64.318;2022-09-09T16:46:31;18.90;48.70
23053;DHT22;11694;-36.632;-64.318;2022-09-09T16:48:59;19.00;48.90
23053;DHT22;11694;-36.632;-64.318;2022-09-09T16:51:33;18.80;48.50
23053;DHT22;11694;-36.632;-64.318;2022-09-09T16:54:03;19.20;48.60
23053;DHT22;11694;-36.632;-64.318;2022-09-09T16:56:34;19.20;46.60
23053;DHT22;11694;-36.632;-64.318;2022-09-09T16:59:06;18.90;46.10
23053;DHT22;11694;-36.632;-64.318;2022-09-09T17:01:35;18.90;44.30
23053;DHT22;11694;-36.632;-64.318;2022-09-09T17:04:09;18.60;44.30
23053;DHT22;11694;-36.632;-64.318;2022-09-09T17:06:37;18.20;43.80
23053;DHT22;11694;-36.632;-64.318;2022-09-09T17:09:09;18.30;46.10
23053;DHT22;11694;-36.632;-64.318;2022-09-09T17:11:38;18.30;45.30
23053;DHT22;11694;-36.632;-64.318;2022-09-09T17:14:07;18.30;47.10
23053;DHT22;11694;-36.632;-64.318;2022-09-09T17:16:35;18.40;45.40
23053;DHT22;11694;-36.632;-64.318;2022-09-09T17:19:03;18.30;45.20
23053;DHT22;11694;-36.632;-64.318;2022-09-09T17:21:31;18.30;46.30
23053;DHT22;11694;-36.632;-64.318;2022-09-09T17:23:59;18.40;46.50
23053;DHT22;11694;-36.632;-64.318;2022-09-09T17:26:29;18.50;45.60
23053;DHT22;11694;-36.632;-64.318;2022-09-09T17:28:57;18.70;45.50
23053;DHT22;11694;-36.632;-64.318;2022-09-09T17:31:25;18.60;42.30
23053;DHT22;11694;-36.632;-64.318;2022-09-09T17:33:55;18.60;42.60
23053;DHT22;11694;-36.632;-64.318;2022-09-09T17:36:28;18.60;44.10
23053;DHT22;11694;-36.632;-64.318;2022-09-09T17:38:56;18.90;44.10
23053;DHT22;11694;-36.632;-64.318;2022-09-09T17:41:27;18.90;42.60
23053;DHT22;11694;-36.632;-64.318;2022-09-09T17:43:54;18.70;42.00
23053;DHT22;11694;-36.632;-64.318;2022-09-09T17:46:29;18.60;42.30
23053;DHT22;11694;-36.632;-64.318;2022-09-09T17:48:59;18.50;42.60
23053;DHT22;11694;-36.632;-64.318;2022-09-09T17:51:29;18.40;40.90